Terminal Aerodrome Forecast
Issued by NWS

Home | Current Version | Previous Version | Text Only | Print | Product List | Glossary On
Versions: 1 2 3 4 5 6 7 8 9 10 11 12 13 14 15 16 17 18 19 20 21 22 23 24 25 26 27 28 29 30 31 32 33 34 35 36
000
FTUS45 KGJT 012322
TAFVEL
TAF
KVEL 012322Z 0200/0224 19016G26KT P6SM FEW120 SCT150
      TEMPO 0200/0201 31015G35KT BKN110
     FM020100 30007KT P6SM FEW140 SCT250
     FM020400 VRB03KT P6SM SCT250
     FM021900 23009KT P6SM FEW250=

USA.gov is the U.S. government's official web portal to all federal, state and local government web resources and services.